sensor_id;sensor_type;location;lat;lon;timestamp;pressure;altitude;pressure_sealevel;temperature;humidity
72428;BME280;60419;48.880;18.036;2022-09-27T00:00:35;97831.09;;;10.59;74.47
72428;BME280;60419;48.880;18.036;2022-09-27T00:03:21;97846.31;;;10.76;75.11
72428;BME280;60419;48.880;18.036;2022-09-27T00:06:14;97850.31;;;11.03;74.28
72428;BME280;60419;48.880;18.036;2022-09-27T00:09:00;97841.13;;;10.83;74.95
72428;BME280;60419;48.880;18.036;2022-09-27T00:11:46;97841.13;;;10.58;76.15
72428;BME280;60419;48.880;18.036;2022-09-27T00:14:31;97828.88;;;10.86;75.44
72428;BME280;60419;48.880;18.036;2022-09-27T00:17:17;97830.06;;;10.97;74.98
72428;BME280;60419;48.880;18.036;2022-09-27T00:20:04;97819.69;;;11.11;74.28
72428;BME280;60419;48.880;18.036;2022-09-27T00:22:50;97826.19;;;11.22;73.71
72428;BME280;60419;48.880;18.036;2022-09-27T00:25:36;97814.16;;;11.20;73.35
72428;BME280;60419;48.880;18.036;2022-09-27T00:28:22;97816.75;;;11.16;73.52
72428;BME280;60419;48.880;18.036;2022-09-27T00:31:17;97811.44;;;10.83;75.46
72428;BME280;60419;48.880;18.036;2022-09-27T00:34:06;97792.56;;;11.08;74.42
72428;BME280;60419;48.880;18.036;2022-09-27T00:36:51;97801.66;;;10.78;75.69
72428;BME280;60419;48.880;18.036;2022-09-27T00:39:37;97798.34;;;9.61;81.27
72428;BME280;60419;48.880;18.036;2022-09-27T00:42:25;97790.00;;;9.95;80.59
72428;BME280;60419;48.880;18.036;2022-09-27T00:45:14;97786.25;;;9.46;82.69
72428;BME280;60419;48.880;18.036;2022-09-27T00:48:04;97773.16;;;8.76;85.39
72428;BME280;60419;48.880;18.036;2022-09-27T00:50:51;97783.22;;;8.97;86.06
72428;BME280;60419;48.880;18.036;2022-09-27T00:53:45;97770.69;;;9.22;84.40
72428;BME280;60419;48.880;18.036;2022-09-27T00:56:35;97779.03;;;9.08;85.67
72428;BME280;60419;48.880;18.036;2022-09-27T00:59:26;97765.97;;;9.19;85.67
72428;BME280;60419;48.880;18.036;2022-09-27T01:02:13;97749.13;;;9.22;85.18
72428;BME280;60419;48.880;18.036;2022-09-27T01:04:59;97770.81;;;9.34;84.57
72428;BME280;60419;48.880;18.036;2022-09-27T01:07:45;97751.44;;;9.11;85.33
72428;BME280;60419;48.880;18.036;2022-09-27T01:10:39;97748.44;;;8.83;86.83
72428;BME280;60419;48.880;18.036;2022-09-27T01:13:39;97760.16;;;8.40;88.88
72428;BME280;60419;48.880;18.036;2022-09-27T01:17:16;97753.06;;;8.35;89.46
72428;BME280;60419;48.880;18.036;2022-09-27T01:23:03;97739.97;;;8.93;87.10
72428;BME280;60419;48.880;18.036;2022-09-27T01:35:05;97735.31;;;8.43;89.59
72428;BME280;60419;48.880;18.036;2022-09-27T01:44:23;97730.34;;;8.62;90.26
72428;BME280;60419;48.880;18.036;2022-09-27T01:47:20;97727.59;;;8.71;90.20
72428;BME280;60419;48.880;18.036;2022-09-27T01:50:10;97723.97;;;9.18;88.89
72428;BME280;60419;48.880;18.036;2022-09-27T01:53:04;97718.00;;;9.12;87.80
72428;BME280;60419;48.880;18.036;2022-09-27T01:55:53;97714.44;;;8.99;88.81
72428;BME280;60419;48.880;18.036;2022-09-27T01:58:43;97706.19;;;8.75;88.93
72428;BME280;60419;48.880;18.036;2022-09-27T02:01:32;97699.94;;;8.62;90.03
72428;BME280;60419;48.880;18.036;2022-09-27T02:04:23;97700.53;;;8.68;90.15
72428;BME280;60419;48.880;18.036;2022-09-27T02:07:19;97709.41;;;8.68;89.89
72428;BME280;60419;48.880;18.036;2022-09-27T02:10:17;97695.53;;;8.57;90.85
72428;BME280;60419;48.880;18.036;2022-09-27T02:16:10;97692.66;;;8.62;90.96
72428;BME280;60419;48.880;18.036;2022-09-27T02:19:54;97686.13;;;8.63;90.95
72428;BME280;60419;48.880;18.036;2022-09-27T02:22:33;97684.53;;;8.92;90.58
72428;BME280;60419;48.880;18.036;2022-09-27T02:31:01;97648.00;;;8.32;91.93
72428;BME280;60419;48.880;18.036;2022-09-27T02:33:59;97668.56;;;8.36;92.63
72428;BME280;60419;48.880;18.036;2022-09-27T02:36:46;97670.97;;;8.80;91.89
72428;BME280;60419;48.880;18.036;2022-09-27T02:39:32;97667.50;;;8.79;92.01
72428;BME280;60419;48.880;18.036;2022-09-27T02:42:18;97672.69;;;8.63;91.84
72428;BME280;60419;48.880;18.036;2022-09-27T02:45:04;97670.75;;;8.73;92.15
72428;BME280;60419;48.880;18.036;2022-09-27T02:47:59;97672.13;;;8.49;92.73
72428;BME280;60419;48.880;18.036;2022-09-27T02:54:05;97673.94;;;8.66;91.55
72428;BME280;60419;48.880;18.036;2022-09-27T03:00:10;97646.44;;;8.31;92.22
72428;BME280;60419;48.880;18.036;2022-09-27T03:03:06;97668.88;;;8.64;92.74
72428;BME280;60419;48.880;18.036;2022-09-27T03:08:45;97660.06;;;8.55;91.35
72428;BME280;60419;48.880;18.036;2022-09-27T03:11:31;97655.88;;;8.67;91.61
72428;BME280;60419;48.880;18.036;2022-09-27T03:14:17;97641.78;;;8.40;92.57
72428;BME280;60419;48.880;18.036;2022-09-27T03:17:03;97624.72;;;8.36;92.99
72428;BME280;60419;48.880;18.036;2022-09-27T03:19:48;97626.81;;;8.81;90.92
72428;BME280;60419;48.880;18.036;2022-09-27T03:22:34;97640.06;;;8.65;92.02
72428;BME280;60419;48.880;18.036;2022-09-27T03:25:19;97634.22;;;8.84;90.07
72428;BME280;60419;48.880;18.036;2022-09-27T03:28:05;97638.09;;;8.95;89.23
72428;BME280;60419;48.880;18.036;2022-09-27T03:30:51;97631.25;;;8.56;90.95
72428;BME280;60419;48.880;18.036;2022-09-27T03:33:36;97633.38;;;8.71;90.77
72428;BME280;60419;48.880;18.036;2022-09-27T03:36:22;97621.47;;;8.93;89.90
72428;BME280;60419;48.880;18.036;2022-09-27T03:39:07;97631.59;;;9.17;88.99
72428;BME280;60419;48.880;18.036;2022-09-27T03:41:52;97621.53;;;8.63;90.23
72428;BME280;60419;48.880;18.036;2022-09-27T03:44:38;97631.84;;;8.61;91.68
72428;BME280;60419;48.880;18.036;2022-09-27T03:47:23;97626.66;;;8.77;91.73
72428;BME280;60419;48.880;18.036;2022-09-27T03:50:10;97619.84;;;8.80;91.12
72428;BME280;60419;48.880;18.036;2022-09-27T03:52:56;97611.94;;;8.54;92.03
72428;BME280;60419;48.880;18.036;2022-09-27T03:55:44;97618.94;;;8.76;91.90
72428;BME280;60419;48.880;18.036;2022-09-27T03:58:29;97605.63;;;8.50;91.52
72428;BME280;60419;48.880;18.036;2022-09-27T04:01:15;97584.19;;;8.83;90.61
72428;BME280;60419;48.880;18.036;2022-09-27T04:04:00;97606.84;;;8.82;90.38
72428;BME280;60419;48.880;18.036;2022-09-27T04:06:46;97605.28;;;8.81;90.03
72428;BME280;60419;48.880;18.036;2022-09-27T04:09:31;97599.84;;;9.44;88.33
72428;BME280;60419;48.880;18.036;2022-09-27T04:12:16;97600.97;;;9.55;87.60
72428;BME280;60419;48.880;18.036;2022-09-27T04:15:02;97589.94;;;9.15;88.18
72428;BME280;60419;48.880;18.036;2022-09-27T04:17:48;97583.84;;;8.84;89.75
72428;BME280;60419;48.880;18.036;2022-09-27T04:20:34;97584.91;;;8.71;90.27
72428;BME280;60419;48.880;18.036;2022-09-27T04:23:20;97585.38;;;8.73;90.65
72428;BME280;60419;48.880;18.036;2022-09-27T04:26:06;97587.72;;;8.96;90.00
72428;BME280;60419;48.880;18.036;2022-09-27T04:28:52;97586.50;;;9.26;87.68
72428;BME280;60419;48.880;18.036;2022-09-27T04:31:38;97584.91;;;8.92;88.54
72428;BME280;60419;48.880;18.036;2022-09-27T04:34:23;97591.81;;;8.60;90.90
72428;BME280;60419;48.880;18.036;2022-09-27T04:37:28;97596.00;;;8.70;90.64
72428;BME280;60419;48.880;18.036;2022-09-27T04:40:14;97582.88;;;8.47;90.73
72428;BME280;60419;48.880;18.036;2022-09-27T04:43:00;97568.03;;;8.62;90.13
72428;BME280;60419;48.880;18.036;2022-09-27T04:45:46;97590.69;;;8.61;90.09
72428;BME280;60419;48.880;18.036;2022-09-27T04:48:31;97594.47;;;9.23;89.02
72428;BME280;60419;48.880;18.036;2022-09-27T04:51:17;97590.59;;;8.70;89.63
72428;BME280;60419;48.880;18.036;2022-09-27T04:54:04;97586.28;;;8.77;89.35
72428;BME280;60419;48.880;18.036;2022-09-27T04:56:49;97589.53;;;9.25;87.85
72428;BME280;60419;48.880;18.036;2022-09-27T04:59:34;97582.50;;;9.33;87.99
72428;BME280;60419;48.880;18.036;2022-09-27T05:02:20;97584.06;;;9.91;85.34
72428;BME280;60419;48.880;18.036;2022-09-27T05:05:05;97587.13;;;9.44;85.68
72428;BME280;60419;48.880;18.036;2022-09-27T05:07:51;97593.41;;;9.36;86.73
72428;BME280;60419;48.880;18.036;2022-09-27T05:10:37;97567.25;;;9.16;86.69
72428;BME280;60419;48.880;18.036;2022-09-27T05:13:22;97569.81;;;8.58;89.24
72428;BME280;60419;48.880;18.036;2022-09-27T05:16:08;97570.06;;;8.65;89.11
72428;BME280;60419;48.880;18.036;2022-09-27T05:18:53;97574.00;;;8.89;89.42
72428;BME280;60419;48.880;18.036;2022-09-27T05:21:39;97568.41;;;9.60;90.14
72428;BME280;60419;48.880;18.036;2022-09-27T05:24:24;97567.31;;;9.61;86.05
72428;BME280;60419;48.880;18.036;2022-09-27T05:27:14;97561.75;;;9.33;88.04
72428;BME280;60419;48.880;18.036;2022-09-27T05:30:03;97556.31;;;9.66;88.86
72428;BME280;60419;48.880;18.036;2022-09-27T05:32:48;97547.16;;;9.13;86.73
72428;BME280;60419;48.880;18.036;2022-09-27T05:35:34;97545.63;;;9.24;88.18
72428;BME280;60419;48.880;18.036;2022-09-27T05:38:20;97503.88;;;8.64;89.36
72428;BME280;60419;48.880;18.036;2022-09-27T05:41:05;97553.38;;;8.72;89.69
72428;BME280;60419;48.880;18.036;2022-09-27T05:43:51;97533.03;;;8.83;89.64
72428;BME280;60419;48.880;18.036;2022-09-27T05:46:36;97527.00;;;8.65;89.68
72428;BME280;60419;48.880;18.036;2022-09-27T05:49:23;97531.59;;;8.85;89.29
72428;BME280;60419;48.880;18.036;2022-09-27T05:52:08;97526.78;;;8.91;89.42
72428;BME280;60419;48.880;18.036;2022-09-27T05:54:54;97523.44;;;8.73;89.62
72428;BME280;60419;48.880;18.036;2022-09-27T05:57:39;97532.28;;;8.95;89.24
72428;BME280;60419;48.880;18.036;2022-09-27T06:00:25;97531.25;;;9.20;88.22
72428;BME280;60419;48.880;18.036;2022-09-27T06:03:12;97522.97;;;8.92;89.25
72428;BME280;60419;48.880;18.036;2022-09-27T06:06:01;97529.44;;;9.12;89.35
72428;BME280;60419;48.880;18.036;2022-09-27T06:08:50;97535.91;;;9.32;88.02
72428;BME280;60419;48.880;18.036;2022-09-27T06:11:35;97520.69;;;9.15;88.04
72428;BME280;60419;48.880;18.036;2022-09-27T06:14:20;97519.41;;;9.00;89.31
72428;BME280;60419;48.880;18.036;2022-09-27T06:17:06;97517.78;;;9.20;87.99
72428;BME280;60419;48.880;18.036;2022-09-27T06:19:51;97526.84;;;9.16;88.75
72428;BME280;60419;48.880;18.036;2022-09-27T06:22:37;97530.25;;;9.25;87.56
72428;BME280;60419;48.880;18.036;2022-09-27T06:25:22;97537.78;;;9.19;88.25
72428;BME280;60419;48.880;18.036;2022-09-27T06:28:07;97512.47;;;9.33;86.91
72428;BME280;60419;48.880;18.036;2022-09-27T06:30:54;97528.91;;;8.98;88.60
72428;BME280;60419;48.880;18.036;2022-09-27T06:33:40;97533.94;;;9.20;88.08
72428;BME280;60419;48.880;18.036;2022-09-27T06:36:25;97527.59;;;9.37;87.80
72428;BME280;60419;48.880;18.036;2022-09-27T06:39:10;97522.13;;;9.13;88.28
72428;BME280;60419;48.880;18.036;2022-09-27T06:41:56;97514.47;;;9.36;87.48
72428;BME280;60419;48.880;18.036;2022-09-27T06:44:41;97518.66;;;9.58;87.12
72428;BME280;60419;48.880;18.036;2022-09-27T06:47:27;97510.56;;;9.94;85.26
72428;BME280;60419;48.880;18.036;2022-09-27T06:50:14;97503.72;;;9.72;85.44
72428;BME280;60419;48.880;18.036;2022-09-27T06:53:00;97502.03;;;9.43;86.59
72428;BME280;60419;48.880;18.036;2022-09-27T06:55:45;97492.50;;;9.83;85.61
72428;BME280;60419;48.880;18.036;2022-09-27T06:58:30;97497.88;;;9.13;88.72
72428;BME280;60419;48.880;18.036;2022-09-27T07:01:34;97497.66;;;9.51;87.75
72428;BME280;60419;48.880;18.036;2022-09-27T07:04:20;97500.75;;;9.28;88.61
72428;BME280;60419;48.880;18.036;2022-09-27T07:07:05;97498.31;;;9.36;88.19
72428;BME280;60419;48.880;18.036;2022-09-27T07:09:51;97505.06;;;9.08;89.41
72428;BME280;60419;48.880;18.036;2022-09-27T07:12:36;97507.66;;;9.17;88.69
72428;BME280;60419;48.880;18.036;2022-09-27T07:15:22;97506.59;;;9.31;88.01
72428;BME280;60419;48.880;18.036;2022-09-27T07:18:07;97495.03;;;9.42;87.63
72428;BME280;60419;48.880;18.036;2022-09-27T07:20:53;97498.97;;;9.33;87.63
72428;BME280;60419;48.880;18.036;2022-09-27T07:23:38;97490.91;;;9.57;86.83
72428;BME280;60419;48.880;18.036;2022-09-27T07:26:24;97494.28;;;9.79;85.96
72428;BME280;60419;48.880;18.036;2022-09-27T07:29:09;97491.50;;;9.87;86.05
72428;BME280;60419;48.880;18.036;2022-09-27T07:31:55;97492.38;;;9.91;85.62
72428;BME280;60419;48.880;18.036;2022-09-27T07:34:40;97498.78;;;9.62;87.36
72428;BME280;60419;48.880;18.036;2022-09-27T07:37:26;97504.41;;;9.69;86.62
72428;BME280;60419;48.880;18.036;2022-09-27T07:40:11;97434.75;;;9.59;84.90
72428;BME280;60419;48.880;18.036;2022-09-27T07:42:57;97492.66;;;10.27;83.97
72428;BME280;60419;48.880;18.036;2022-09-27T07:45:43;97500.28;;;10.37;83.54
72428;BME280;60419;48.880;18.036;2022-09-27T07:48:29;97494.63;;;9.77;85.74
72428;BME280;60419;48.880;18.036;2022-09-27T07:51:14;97498.22;;;9.69;86.52
72428;BME280;60419;48.880;18.036;2022-09-27T07:54:00;97492.31;;;10.28;84.81
72428;BME280;60419;48.880;18.036;2022-09-27T07:56:46;97493.13;;;10.16;85.16
72428;BME280;60419;48.880;18.036;2022-09-27T07:59:33;97493.25;;;10.60;83.52
72428;BME280;60419;48.880;18.036;2022-09-27T08:02:19;97490.13;;;9.93;86.16
72428;BME280;60419;48.880;18.036;2022-09-27T08:05:05;97491.13;;;9.89;86.97
72428;BME280;60419;48.880;18.036;2022-09-27T08:07:54;97483.94;;;10.46;84.62
72428;BME280;60419;48.880;18.036;2022-09-27T08:10:40;97483.53;;;10.31;83.99
72428;BME280;60419;48.880;18.036;2022-09-27T08:13:28;97483.78;;;10.26;84.85
72428;BME280;60419;48.880;18.036;2022-09-27T08:16:14;97481.41;;;10.25;84.54
72428;BME280;60419;48.880;18.036;2022-09-27T08:18:59;97478.41;;;10.14;84.32
72428;BME280;60419;48.880;18.036;2022-09-27T08:21:45;97473.09;;;10.30;84.51
72428;BME280;60419;48.880;18.036;2022-09-27T08:24:31;97457.47;;;10.23;84.39
72428;BME280;60419;48.880;18.036;2022-09-27T08:27:17;97465.94;;;10.50;83.51
72428;BME280;60419;48.880;18.036;2022-09-27T08:30:03;97469.31;;;10.75;83.36
72428;BME280;60419;48.880;18.036;2022-09-27T08:32:48;97459.78;;;10.65;82.52
72428;BME280;60419;48.880;18.036;2022-09-27T08:35:34;97460.78;;;11.01;82.24
72428;BME280;60419;48.880;18.036;2022-09-27T08:38:19;97476.34;;;11.36;80.70
72428;BME280;60419;48.880;18.036;2022-09-27T08:41:13;97453.47;;;11.81;79.63
72428;BME280;60419;48.880;18.036;2022-09-27T08:47:16;97454.59;;;12.50;77.31
72428;BME280;60419;48.880;18.036;2022-09-27T08:53:04;97438.25;;;13.09;75.45
72428;BME280;60419;48.880;18.036;2022-09-27T08:55:54;97468.75;;;12.83;75.99
72428;BME280;60419;48.880;18.036;2022-09-27T08:58:50;97454.72;;;12.77;77.21
72428;BME280;60419;48.880;18.036;2022-09-27T09:01:37;97452.78;;;12.58;79.32
72428;BME280;60419;48.880;18.036;2022-09-27T09:04:34;97454.22;;;12.71;78.06
72428;BME280;60419;48.880;18.036;2022-09-27T09:10:31;97449.16;;;12.70;77.27
72428;BME280;60419;48.880;18.036;2022-09-27T09:17:28;97458.97;;;13.43;75.36
72428;BME280;60419;48.880;18.036;2022-09-27T09:20:48;97451.63;;;12.98;75.73
72428;BME280;60419;48.880;18.036;2022-09-27T09:26:48;97449.81;;;13.75;74.37
72428;BME280;60419;48.880;18.036;2022-09-27T09:33:07;97441.41;;;13.57;75.87
72428;BME280;60419;48.880;18.036;2022-09-27T09:36:03;97439.94;;;13.90;74.37
72428;BME280;60419;48.880;18.036;2022-09-27T09:39:02;97429.75;;;13.83;74.83
72428;BME280;60419;48.880;18.036;2022-09-27T09:44:41;97436.25;;;13.52;75.99
72428;BME280;60419;48.880;18.036;2022-09-27T09:47:38;97432.75;;;13.28;76.58
72428;BME280;60419;48.880;18.036;2022-09-27T09:50:37;97426.03;;;13.18;77.04
72428;BME280;60419;48.880;18.036;2022-09-27T09:53:56;97436.34;;;13.55;76.38
72428;BME280;60419;48.880;18.036;2022-09-27T09:56:47;97437.06;;;13.29;77.19
72428;BME280;60419;48.880;18.036;2022-09-27T10:02:37;97443.44;;;13.17;77.87
72428;BME280;60419;48.880;18.036;2022-09-27T10:05:25;97441.81;;;12.90;79.53
72428;BME280;60419;48.880;18.036;2022-09-27T10:08:16;97400.97;;;13.02;78.97
72428;BME280;60419;48.880;18.036;2022-09-27T10:11:02;97418.91;;;13.56;77.99
72428;BME280;60419;48.880;18.036;2022-09-27T10:13:48;97417.41;;;13.59;77.68
72428;BME280;60419;48.880;18.036;2022-09-27T10:16:33;97403.19;;;13.96;76.86
72428;BME280;60419;48.880;18.036;2022-09-27T10:19:27;97408.13;;;13.86;76.45
72428;BME280;60419;48.880;18.036;2022-09-27T10:22:21;97400.25;;;14.08;76.20
72428;BME280;60419;48.880;18.036;2022-09-27T10:25:08;97395.72;;;14.16;75.81
72428;BME280;60419;48.880;18.036;2022-09-27T10:27:54;97394.88;;;14.12;76.20
72428;BME280;60419;48.880;18.036;2022-09-27T10:30:40;97399.28;;;13.93;77.17
72428;BME280;60419;48.880;18.036;2022-09-27T10:33:25;97403.88;;;13.62;78.64
72428;BME280;60419;48.880;18.036;2022-09-27T10:36:23;97403.56;;;12.95;80.98
72428;BME280;60419;48.880;18.036;2022-09-27T10:39:21;97394.31;;;12.53;83.87
72428;BME280;60419;48.880;18.036;2022-09-27T10:42:33;97398.22;;;12.79;82.96
72428;BME280;60419;48.880;18.036;2022-09-27T10:45:28;97392.34;;;13.19;81.06
72428;BME280;60419;48.880;18.036;2022-09-27T10:48:20;97378.28;;;12.87;81.56
72428;BME280;60419;48.880;18.036;2022-09-27T10:51:38;97377.50;;;13.36;79.68
72428;BME280;60419;48.880;18.036;2022-09-27T10:54:28;97386.13;;;13.42;80.33
72428;BME280;60419;48.880;18.036;2022-09-27T10:57:17;97386.59;;;13.71;78.44
72428;BME280;60419;48.880;18.036;2022-09-27T11:00:07;97370.19;;;13.94;76.92
72428;BME280;60419;48.880;18.036;2022-09-27T11:03:13;97381.84;;;14.24;76.25
72428;BME280;60419;48.880;18.036;2022-09-27T11:09:22;97400.44;;;13.92;77.56
72428;BME280;60419;48.880;18.036;2022-09-27T11:12:12;97401.53;;;13.87;77.96
72428;BME280;60419;48.880;18.036;2022-09-27T11:15:00;97405.41;;;12.91;81.06
72428;BME280;60419;48.880;18.036;2022-09-27T11:18:00;97408.59;;;12.34;83.45
72428;BME280;60419;48.880;18.036;2022-09-27T11:20:54;97424.91;;;11.83;82.46
72428;BME280;60419;48.880;18.036;2022-09-27T11:39:23;97441.94;;;10.60;77.96
72428;BME280;60419;48.880;18.036;2022-09-27T11:48:58;97457.50;;;11.23;76.50
72428;BME280;60419;48.880;18.036;2022-09-27T11:54:28;97451.03;;;11.76;75.58
72428;BME280;60419;48.880;18.036;2022-09-27T12:09:36;97443.84;;;11.83;78.15
72428;BME280;60419;48.880;18.036;2022-09-27T12:12:27;97450.34;;;11.98;77.28
72428;BME280;60419;48.880;18.036;2022-09-27T12:15:18;97442.91;;;11.76;78.15
72428;BME280;60419;48.880;18.036;2022-09-27T12:21:01;97439.88;;;12.32;76.94
72428;BME280;60419;48.880;18.036;2022-09-27T12:23:52;97431.75;;;11.61;77.86
72428;BME280;60419;48.880;18.036;2022-09-27T12:26:41;97452.44;;;11.54;74.29
72428;BME280;60419;48.880;18.036;2022-09-27T12:29:29;97443.34;;;11.78;73.91
72428;BME280;60419;48.880;18.036;2022-09-27T12:32:24;97457.16;;;11.57;72.07
72428;BME280;60419;48.880;18.036;2022-09-27T12:35:21;97459.16;;;11.76;75.69
72428;BME280;60419;48.880;18.036;2022-09-27T12:38:13;97461.56;;;11.81;75.90
72428;BME280;60419;48.880;18.036;2022-09-27T12:41:00;97456.31;;;12.04;73.43
72428;BME280;60419;48.880;18.036;2022-09-27T12:43:49;97465.69;;;12.10;72.17
72428;BME280;60419;48.880;18.036;2022-09-27T12:47:00;97463.22;;;12.21;72.08
72428;BME280;60419;48.880;18.036;2022-09-27T12:50:17;97476.28;;;12.34;72.56
72428;BME280;60419;48.880;18.036;2022-09-27T12:53:16;97480.09;;;12.30;72.18
72428;BME280;60419;48.880;18.036;2022-09-27T12:59:45;97479.16;;;12.81;73.35
72428;BME280;60419;48.880;18.036;2022-09-27T13:06:24;97465.25;;;13.25;71.08
72428;BME280;60419;48.880;18.036;2022-09-27T13:12:08;97436.81;;;11.98;72.66
72428;BME280;60419;48.880;18.036;2022-09-27T13:15:00;97444.81;;;12.26;72.85
72428;BME280;60419;48.880;18.036;2022-09-27T13:17:52;97440.69;;;12.52;72.23
72428;BME280;60419;48.880;18.036;2022-09-27T13:20:40;97439.34;;;11.56;74.95
72428;BME280;60419;48.880;18.036;2022-09-27T13:26:22;97444.47;;;12.28;74.43
72428;BME280;60419;48.880;18.036;2022-09-27T13:29:24;97367.25;;;11.44;73.82
72428;BME280;60419;48.880;18.036;2022-09-27T13:32:14;97452.75;;;12.19;73.86
72428;BME280;60419;48.880;18.036;2022-09-27T13:38:20;97447.06;;;13.25;72.48
72428;BME280;60419;48.880;18.036;2022-09-27T13:41:14;97434.88;;;13.61;70.70
72428;BME280;60419;48.880;18.036;2022-09-27T13:47:32;97438.66;;;13.80;68.62
72428;BME280;60419;48.880;18.036;2022-09-27T13:50:27;97436.13;;;12.98;69.55
72428;BME280;60419;48.880;18.036;2022-09-27T13:53:32;97436.69;;;12.46;71.81
72428;BME280;60419;48.880;18.036;2022-09-27T14:02:24;97446.41;;;13.55;71.56
72428;BME280;60419;48.880;18.036;2022-09-27T14:05:19;97446.19;;;13.44;73.09
72428;BME280;60419;48.880;18.036;2022-09-27T14:08:19;97442.34;;;13.45;71.58
72428;BME280;60419;48.880;18.036;2022-09-27T14:11:14;97434.34;;;13.29;73.06
72428;BME280;60419;48.880;18.036;2022-09-27T14:14:03;97437.75;;;13.72;71.39
72428;BME280;60419;48.880;18.036;2022-09-27T14:16:49;97433.38;;;13.91;70.39
72428;BME280;60419;48.880;18.036;2022-09-27T14:19:39;97442.84;;;14.04;69.52
72428;BME280;60419;48.880;18.036;2022-09-27T14:22:25;97445.06;;;14.25;69.56
72428;BME280;60419;48.880;18.036;2022-09-27T14:25:16;97431.44;;;13.91;71.05
72428;BME280;60419;48.880;18.036;2022-09-27T14:28:01;97462.22;;;14.29;70.75
72428;BME280;60419;48.880;18.036;2022-09-27T14:30:47;97447.84;;;14.28;69.83
72428;BME280;60419;48.880;18.036;2022-09-27T14:33:33;97437.13;;;14.39;69.47
72428;BME280;60419;48.880;18.036;2022-09-27T14:36:29;97456.81;;;14.63;68.97
72428;BME280;60419;48.880;18.036;2022-09-27T14:39:34;97456.03;;;14.62;69.20
72428;BME280;60419;48.880;18.036;2022-09-27T14:42:24;97459.66;;;14.73;69.10
72428;BME280;60419;48.880;18.036;2022-09-27T14:45:22;97457.22;;;14.65;68.72
72428;BME280;60419;48.880;18.036;2022-09-27T14:48:28;97466.84;;;14.89;68.75
72428;BME280;60419;48.880;18.036;2022-09-27T14:51:19;97471.75;;;14.76;68.82
72428;BME280;60419;48.880;18.036;2022-09-27T14:54:17;97467.13;;;14.50;68.42
72428;BME280;60419;48.880;18.036;2022-09-27T14:57:05;97470.84;;;13.81;72.19
72428;BME280;60419;48.880;18.036;2022-09-27T14:59:51;97491.38;;;14.05;70.85
72428;BME280;60419;48.880;18.036;2022-09-27T15:02:39;97474.22;;;13.75;72.55
72428;BME280;60419;48.880;18.036;2022-09-27T15:05:28;97473.09;;;14.32;70.48
72428;BME280;60419;48.880;18.036;2022-09-27T15:08:14;97462.03;;;14.45;69.16
72428;BME280;60419;48.880;18.036;2022-09-27T15:11:05;97446.50;;;14.45;67.02
72428;BME280;60419;48.880;18.036;2022-09-27T15:13:52;97448.06;;;13.86;67.72
72428;BME280;60419;48.880;18.036;2022-09-27T15:16:39;97453.13;;;13.41;70.38
72428;BME280;60419;48.880;18.036;2022-09-27T15:19:28;97470.16;;;13.61;71.62
72428;BME280;60419;48.880;18.036;2022-09-27T15:22:40;97474.19;;;13.71;71.67
72428;BME280;60419;48.880;18.036;2022-09-27T15:25:37;97469.38;;;13.87;71.93
72428;BME280;60419;48.880;18.036;2022-09-27T15:28:26;97479.13;;;13.88;72.29
72428;BME280;60419;48.880;18.036;2022-09-27T15:31:12;97479.19;;;14.22;71.22
72428;BME280;60419;48.880;18.036;2022-09-27T15:33:58;97461.88;;;14.34;70.07
72428;BME280;60419;48.880;18.036;2022-09-27T15:39:38;97462.94;;;14.56;67.84
72428;BME280;60419;48.880;18.036;2022-09-27T15:42:24;97465.47;;;13.58;71.25
72428;BME280;60419;48.880;18.036;2022-09-27T15:45:30;97458.78;;;13.10;74.01
72428;BME280;60419;48.880;18.036;2022-09-27T15:48:19;97470.63;;;13.21;73.94
72428;BME280;60419;48.880;18.036;2022-09-27T15:51:40;97469.25;;;13.54;73.16
72428;BME280;60419;48.880;18.036;2022-09-27T15:54:28;97481.00;;;13.61;72.89
72428;BME280;60419;48.880;18.036;2022-09-27T15:57:14;97483.66;;;13.81;72.21
72428;BME280;60419;48.880;18.036;2022-09-27T16:00:00;97489.69;;;13.97;71.70
72428;BME280;60419;48.880;18.036;2022-09-27T16:02:46;97486.88;;;13.90;71.10
72428;BME280;60419;48.880;18.036;2022-09-27T16:05:31;97494.03;;;14.02;70.88
72428;BME280;60419;48.880;18.036;2022-09-27T16:08:17;97493.53;;;13.96;72.78
72428;BME280;60419;48.880;18.036;2022-09-27T16:11:02;97494.91;;;13.83;71.46
72428;BME280;60419;48.880;18.036;2022-09-27T16:13:49;97492.19;;;13.14;73.24
72428;BME280;60419;48.880;18.036;2022-09-27T16:16:38;97488.00;;;11.87;78.56
72428;BME280;60419;48.880;18.036;2022-09-27T16:19:24;97485.75;;;11.42;80.73
72428;BME280;60419;48.880;18.036;2022-09-27T16:22:09;97477.88;;;11.84;79.43
72428;BME280;60419;48.880;18.036;2022-09-27T16:24:55;97491.31;;;12.48;77.37
72428;BME280;60419;48.880;18.036;2022-09-27T16:27:41;97498.63;;;12.86;75.43
72428;BME280;60419;48.880;18.036;2022-09-27T16:30:27;97510.78;;;13.15;74.39
72428;BME280;60419;48.880;18.036;2022-09-27T16:33:14;97508.34;;;13.30;73.64
72428;BME280;60419;48.880;18.036;2022-09-27T16:36:04;97507.63;;;12.90;75.29
72428;BME280;60419;48.880;18.036;2022-09-27T16:38:50;97527.34;;;13.10;74.12
72428;BME280;60419;48.880;18.036;2022-09-27T16:41:36;97506.13;;;12.93;74.24
72428;BME280;60419;48.880;18.036;2022-09-27T16:44:21;97518.44;;;12.71;75.49
72428;BME280;60419;48.880;18.036;2022-09-27T16:47:07;97502.63;;;12.73;75.31
72428;BME280;60419;48.880;18.036;2022-09-27T16:49:53;97523.88;;;12.90;75.33
72428;BME280;60419;48.880;18.036;2022-09-27T16:52:57;97532.50;;;13.81;78.42
72428;BME280;60419;48.880;18.036;2022-09-27T16:55:44;97530.22;;;14.09;72.46
72428;BME280;60419;48.880;18.036;2022-09-27T16:58:29;97529.13;;;14.71;72.28
72428;BME280;60419;48.880;18.036;2022-09-27T17:01:15;97532.88;;;14.63;69.95
72428;BME280;60419;48.880;18.036;2022-09-27T17:04:00;97515.03;;;14.35;69.31
72428;BME280;60419;48.880;18.036;2022-09-27T17:06:46;97537.72;;;14.46;69.60